Heidelberg, Minnesota
Current Conditions -  °F | °C
As of 4:28 PM on Monday 20 Oct 2014 (Local Time) from KLVN Reporting Station
Clear Clear  
Wind Chill: 61°   Ceiling: Unl
Heat Index: 61°   Visibility: 10mi
Dew Point: 41°   Wind: 9mph
Humidity: 48%   Direction: 310°NW
Pressure: 29.98"   Gusts: NA
Location:  44.5257°N, 93.5843°W
Report Text: KLVN 202128Z AUTO 31008KT 10SM CLR 16/05 A2998 RMK AO2
Loading
Personal Weather Stations






























Interactive Weather Map
Tropical Storm Tracking
New forecast layout! Learn more

10-Day Weather Forecast

Advertisements
Track Severe Weather on mobile